MMPN/UPN METAR and TAF weather

Enter ICAO airport designator
Station Type Date Time Source
MMPN METAR 2023/02/05 13:40 UTC NOAA

MMPN 051340Z 00000KT 10SM SKC 11/07 A3026 RMK HZY


Station Type Date Time Source
MMPN Decoded METAR 2023/02/05 13:40 UTC NOAA

Uruapan / Gen Rayon, Mexico (MMPN) 19-24N 102-02W
Feb 05, 2023 - 08:40 AM EST / 2023.02.05 1340 UTC
Wind: Calm:0
Visibility: 10 mile(s):0
Sky conditions: clear
Temperature: 51 F (11 C)
Dew Point: 44 F (7 C)
Relative Humidity: 76%
Pressure (altimeter): 30.26 in. Hg (1024 hPa)
ob: MMPN 051340Z 00000KT 10SM SKC 11/07 A3026 RMK HZY
cycle: 13

Station Type Date Time Source
MMPN TAF 2023/02/05 06:12 UTC NOAA

TAF MMPN 050505Z 0506/0606 00000KT P6SM SKC
FM051900 18010KT P6SM SKC
FM060100 00000KT P6SM SKC

Example: see airport list